Time;durP1;ratioP1;P1;durP2;ratioP2;P2;SDS_P1;SDS_P2;PMS_P1;PMS_P2;Temp;Humidity;BMP_temperature;BMP_pressure;BME280_temperature;BME280_humidity;BME280_pressure;Samples;Min_cycle;Max_cycle;Signal;HPM_P1;HPM_P2
2022/01/15 00:01:01;;;;;;;32.53;24.57;;;-1.30;99.90;;;;;;5130775;27;20559;-65
2022/01/15 00:03:28;;;;;;;31.17;23.73;;;-1.40;99.90;;;;;;5131453;27;20517;-65
2022/01/15 00:05:55;;;;;;;31.47;24.57;;;-1.40;99.90;;;;;;5125593;27;20468;-64
2022/01/15 00:08:23;;;;;;;39.40;24.90;;;-1.40;99.90;;;;;;5129999;27;20452;-64
2022/01/15 00:10:51;;;;;;;31.50;23.70;;;-1.40;99.90;;;;;;5130452;27;20479;-63
2022/01/15 00:13:25;;;;;;;34.90;26.97;;;-1.30;99.90;;;;;;5130946;27;20484;-64
2022/01/15 00:16:03;;;;;;;30.33;24.07;;;-1.30;99.90;;;;;;5130139;27;20449;-64
2022/01/15 00:18:41;;;;;;;32.43;25.00;;;-1.40;99.90;;;;;;5130207;27;20449;-63
2022/01/15 00:21:08;;;;;;;30.77;25.00;;;-1.50;99.90;;;;;;5124435;27;20498;-63
2022/01/15 00:23:35;;;;;;;35.30;24.87;;;-1.60;99.90;;;;;;5130466;27;20432;-63
2022/01/15 00:26:02;;;;;;;25.90;21.07;;;-1.60;99.90;;;;;;5129552;27;20472;-63
2022/01/15 00:28:29;;;;;;;29.03;22.83;;;-1.60;99.90;;;;;;5130041;27;20448;-63
2022/01/15 00:30:57;;;;;;;30.23;25.60;;;-1.60;99.90;;;;;;5128861;27;20479;-64
2022/01/15 00:33:25;;;;;;;33.07;26.27;;;-1.60;99.90;;;;;;5130115;27;20459;-63
2022/01/15 00:35:53;;;;;;;32.33;25.57;;;-1.60;99.90;;;;;;5129185;27;21028;-63
2022/01/15 00:38:19;;;;;;;28.53;24.10;;;-1.50;99.90;;;;;;5129970;27;20464;-63
2022/01/15 00:40:46;;;;;;;33.17;24.57;;;-1.50;99.90;;;;;;5129335;27;20583;-63
2022/01/15 00:43:13;;;;;;;34.63;22.87;;;-1.50;99.90;;;;;;5130194;27;20456;-63
2022/01/15 00:45:40;;;;;;;28.60;21.50;;;-1.60;99.90;;;;;;5130355;27;20535;-63
2022/01/15 00:48:09;;;;;;;34.27;24.50;;;-1.60;99.90;;;;;;5129518;27;20448;-63
2022/01/15 00:50:36;;;;;;;34.60;25.77;;;-1.50;99.90;;;;;;5128147;27;20465;-63
2022/01/15 00:53:03;;;;;;;32.57;23.17;;;-1.50;99.90;;;;;;5129337;27;20447;-64
2022/01/15 00:55:30;;;;;;;31.13;22.70;;;-1.50;99.90;;;;;;5129842;27;20576;-63
2022/01/15 00:57:56;;;;;;;30.53;23.30;;;-1.50;99.90;;;;;;5129305;27;20587;-63
2022/01/15 01:00:25;;;;;;;24.67;20.70;;;-1.40;99.90;;;;;;5129150;27;20997;-63
2022/01/15 01:02:52;;;;;;;29.17;22.27;;;-1.40;99.90;;;;;;5129468;27;20460;-64
2022/01/15 01:05:21;;;;;;;26.83;21.17;;;-1.40;99.90;;;;;;5129723;27;20531;-64
2022/01/15 01:07:48;;;;;;;30.70;22.63;;;-1.40;99.90;;;;;;5129285;27;20453;-63
2022/01/15 01:10:41;;;;;;;31.17;21.53;;;-1.40;99.90;;;;;;5129059;27;20846;-61
2022/01/15 01:13:16;;;;;;;26.60;20.80;;;-1.50;99.90;;;;;;5128468;27;20635;-64
2022/01/15 01:21:48;;;;;;;36.07;24.67;;;-1.60;99.90;;;;;;5128567;27;20464;-64
2022/01/15 01:24:09;;;;;;;35.50;22.93;;;-1.70;99.90;;;;;;5125441;27;20860;-63
2022/01/15 01:26:43;;;;;;;29.87;22.87;;;-1.70;99.90;;;;;;5128978;27;20440;-65
2022/01/15 01:29:21;;;;;;;36.87;25.87;;;-1.70;99.90;;;;;;5131192;27;20963;-63
2022/01/15 01:31:57;;;;;;;36.97;25.00;;;-1.80;99.90;;;;;;5126034;27;20476;-63
2022/01/15 01:34:25;;;;;;;33.63;25.13;;;-1.80;99.90;;;;;;5127929;27;20479;-64
2022/01/15 01:37:00;;;;;;;40.40;28.03;;;-1.70;99.90;;;;;;5128347;27;20542;-65
2022/01/15 01:39:36;;;;;;;41.90;27.53;;;-1.70;99.90;;;;;;5126322;27;21049;-63
2022/01/15 01:42:11;;;;;;;36.73;27.33;;;-1.70;99.90;;;;;;5128022;27;20472;-61
2022/01/15 01:44:41;;;;;;;30.80;26.70;;;-1.80;99.90;;;;;;5128895;27;20444;-63
2022/01/15 01:47:18;;;;;;;34.90;26.53;;;-1.70;99.90;;;;;;5128406;27;20446;-64
2022/01/15 01:49:45;;;;;;;38.40;26.60;;;-1.70;99.90;;;;;;5122438;27;20527;-63
2022/01/15 01:52:13;;;;;;;41.00;29.03;;;-1.50;99.90;;;;;;5128148;27;20445;-65
2022/01/15 01:54:40;;;;;;;35.00;24.83;;;-1.50;99.90;;;;;;5128519;27;20488;-65
2022/01/15 01:57:07;;;;;;;30.13;23.90;;;-1.50;99.90;;;;;;5128231;27;20449;-63
2022/01/15 01:59:34;;;;;;;39.63;25.60;;;-1.50;99.90;;;;;;5128466;27;20436;-63
2022/01/15 02:02:01;;;;;;;37.17;24.60;;;-1.50;99.90;;;;;;5128243;27;20503;-63
2022/01/15 02:04:27;;;;;;;31.50;24.30;;;-1.50;99.90;;;;;;5128234;27;20441;-64
2022/01/15 02:06:54;;;;;;;38.30;23.40;;;-1.60;99.90;;;;;;5127829;27;20539;-65
2022/01/15 02:09:23;;;;;;;32.70;24.00;;;-1.70;99.90;;;;;;5127639;27;20797;-64
2022/01/15 02:11:50;;;;;;;31.67;22.77;;;-1.70;99.90;;;;;;5127801;27;20917;-64
2022/01/15 02:14:27;;;;;;;31.80;22.47;;;-1.70;99.90;;;;;;5128081;27;20488;-65
2022/01/15 02:16:54;;;;;;;31.10;22.00;;;-1.70;99.90;;;;;;5127894;27;20448;-64
2022/01/15 02:19:21;;;;;;;29.10;22.67;;;-1.70;99.90;;;;;;5127867;27;20538;-64
2022/01/15 02:24:34;;;;;;;29.80;22.60;;;-1.70;99.90;;;;;;5128191;27;20610;-63
2022/01/15 02:27:01;;;;;;;27.97;21.50;;;-1.80;99.90;;;;;;5128981;27;20495;-63
2022/01/15 02:29:28;;;;;;;27.27;21.60;;;-1.80;99.90;;;;;;5129286;27;20580;-63
2022/01/15 02:31:54;;;;;;;31.43;23.60;;;-1.70;99.90;;;;;;5128782;27;20835;-64
2022/01/15 02:34:21;;;;;;;29.77;22.60;;;-1.70;99.90;;;;;;5129137;27;20484;-65
2022/01/15 02:36:49;;;;;;;28.10;20.47;;;-1.70;99.90;;;;;;5128886;27;20458;-64
2022/01/15 02:39:16;;;;;;;33.07;21.97;;;-1.80;99.90;;;;;;5129252;27;20463;-64
2022/01/15 02:41:43;;;;;;;29.53;21.00;;;-1.80;99.90;;;;;;5128978;27;20473;-65
2022/01/15 02:44:16;;;;;;;26.90;21.53;;;-1.80;99.90;;;;;;5128994;27;20457;-65
2022/01/15 02:49:27;;;;;;;31.03;21.53;;;-1.90;99.90;;;;;;5126940;28;20416;-63
2022/01/15 02:51:56;;;;;;;30.53;23.40;;;-2.00;99.90;;;;;;5121090;28;20475;-63
2022/01/15 02:54:23;;;;;;;30.03;21.10;;;-1.90;99.90;;;;;;5127679;27;20567;-64
2022/01/15 02:56:50;;;;;;;26.83;22.17;;;-2.00;99.90;;;;;;5127310;27;20448;-64
2022/01/15 02:59:20;;;;;;;30.67;22.03;;;-2.00;99.90;;;;;;5127304;27;20486;-64
2022/01/15 03:01:48;;;;;;;30.87;22.70;;;-1.90;99.90;;;;;;5127400;27;20465;-62
2022/01/15 03:04:15;;;;;;;29.30;22.67;;;-1.80;99.90;;;;;;5127643;27;20558;-62
2022/01/15 03:06:42;;;;;;;27.37;21.03;;;-1.90;99.90;;;;;;5127784;27;20456;-63
2022/01/15 03:09:10;;;;;;;31.20;22.77;;;-1.90;99.90;;;;;;5127320;27;20448;-65
2022/01/15 03:11:37;;;;;;;28.67;21.53;;;-1.90;99.90;;;;;;5128034;27;20494;-63
2022/01/15 03:14:04;;;;;;;31.77;21.20;;;-1.90;99.90;;;;;;5127275;27;20445;-63
2022/01/15 03:16:31;;;;;;;28.70;21.60;;;-1.90;99.90;;;;;;5121786;27;20489;-62
2022/01/15 03:18:58;;;;;;;25.90;20.87;;;-2.00;99.90;;;;;;5126649;28;20457;-62
2022/01/15 03:21:25;;;;;;;27.93;21.13;;;-2.00;99.90;;;;;;5127223;27;20511;-63
2022/01/15 03:23:51;;;;;;;24.53;21.40;;;-2.10;99.90;;;;;;5127270;27;20463;-63
2022/01/15 03:26:20;;;;;;;27.70;21.17;;;-2.20;99.90;;;;;;5127642;27;20449;-63
2022/01/15 03:28:46;;;;;;;28.23;20.57;;;-2.20;99.90;;;;;;5126742;27;20540;-65
2022/01/15 03:31:13;;;;;;;26.70;20.33;;;-2.20;99.90;;;;;;5127208;27;20552;-63
2022/01/15 03:33:40;;;;;;;28.97;21.57;;;-2.20;99.90;;;;;;5127656;27;20875;-63
2022/01/15 03:36:07;;;;;;;27.63;21.23;;;-2.10;99.90;;;;;;5128608;27;20560;-63
2022/01/15 03:38:34;;;;;;;29.17;21.10;;;-2.10;99.90;;;;;;5131018;27;20825;-62
2022/01/15 03:41:01;;;;;;;29.63;21.60;;;-2.00;99.90;;;;;;5130289;27;20480;-64
2022/01/15 03:43:29;;;;;;;26.80;20.40;;;-2.00;99.90;;;;;;5130901;27;21031;-63
2022/01/15 03:45:56;;;;;;;27.10;22.00;;;-2.10;99.90;;;;;;5132341;27;20454;-63
2022/01/15 03:48:24;;;;;;;27.23;22.33;;;-2.10;99.90;;;;;;5131839;27;20475;-63
2022/01/15 03:50:51;;;;;;;26.17;19.80;;;-2.10;99.90;;;;;;5131263;27;20473;-62
2022/01/15 03:53:20;;;;;;;29.97;20.57;;;-2.20;99.90;;;;;;5131409;27;20824;-63
2022/01/15 03:55:47;;;;;;;26.83;20.20;;;-2.30;99.90;;;;;;5131773;27;20477;-63
2022/01/15 03:58:14;;;;;;;29.87;20.83;;;-2.30;99.90;;;;;;5132379;27;20457;-64
2022/01/15 04:00:42;;;;;;;25.73;21.30;;;-2.30;99.90;;;;;;5131648;27;21077;-64
2022/01/15 04:03:09;;;;;;;31.17;23.10;;;-2.30;99.90;;;;;;5131788;27;20445;-63
2022/01/15 04:05:36;;;;;;;29.80;21.63;;;-2.30;99.90;;;;;;5131830;27;20527;-63
2022/01/15 04:08:03;;;;;;;32.20;22.63;;;-2.30;99.90;;;;;;5131728;27;20459;-63
2022/01/15 04:10:29;;;;;;;30.93;22.63;;;-2.30;99.90;;;;;;5120996;27;20640;-63
2022/01/15 04:12:56;;;;;;;28.23;20.97;;;-2.30;99.90;;;;;;5132944;27;20445;-63
2022/01/15 04:15:25;;;;;;;28.20;21.13;;;-2.30;99.90;;;;;;5133289;27;20560;-63
2022/01/15 04:17:53;;;;;;;34.90;22.80;;;-2.30;99.90;;;;;;5133543;27;20808;-63
2022/01/15 04:20:22;;;;;;;29.23;22.40;;;-2.40;99.90;;;;;;5132682;27;20467;-63
2022/01/15 04:22:50;;;;;;;32.00;22.63;;;-2.40;99.90;;;;;;5133204;27;20452;-63
2022/01/15 04:25:18;;;;;;;28.27;22.83;;;-2.40;99.90;;;;;;5133050;27;20445;-64
2022/01/15 04:27:45;;;;;;;30.13;23.03;;;-2.30;99.90;;;;;;5132979;27;20464;-63
2022/01/15 04:30:13;;;;;;;30.40;21.90;;;-2.30;99.90;;;;;;5132249;27;20475;-65
2022/01/15 04:32:40;;;;;;;29.40;21.90;;;-2.40;99.90;;;;;;5132721;27;20540;-63
2022/01/15 04:35:10;;;;;;;29.40;22.37;;;-2.40;99.90;;;;;;5132831;27;20849;-63
2022/01/15 04:37:40;;;;;;;30.40;22.13;;;-2.40;99.90;;;;;;5133007;27;20451;-63
2022/01/15 04:40:09;;;;;;;26.40;22.20;;;-2.40;99.90;;;;;;5132547;27;20958;-64
2022/01/15 04:42:36;;;;;;;31.47;25.47;;;-2.50;99.90;;;;;;5132946;27;20990;-63
2022/01/15 04:45:07;;;;;;;30.20;23.10;;;-2.50;99.90;;;;;;5132882;27;20449;-64
2022/01/15 04:47:33;;;;;;;32.37;23.27;;;-2.40;99.90;;;;;;5131856;27;20448;-64
2022/01/15 04:50:00;;;;;;;33.43;22.57;;;-2.50;99.90;;;;;;5132341;27;20448;-63
2022/01/15 04:52:30;;;;;;;32.20;23.43;;;-2.40;99.90;;;;;;5132479;27;20879;-63
2022/01/15 04:54:57;;;;;;;29.30;22.73;;;-2.40;99.90;;;;;;5132776;27;20560;-64
2022/01/15 04:57:23;;;;;;;31.87;22.90;;;-2.40;99.90;;;;;;5132625;27;20447;-63
2022/01/15 04:59:50;;;;;;;31.87;23.30;;;-2.40;99.90;;;;;;5132204;27;20444;-63
2022/01/15 05:02:17;;;;;;;31.47;23.00;;;-2.40;99.90;;;;;;5132164;27;20869;-65
2022/01/15 05:04:44;;;;;;;34.77;24.20;;;-2.40;99.90;;;;;;5132979;27;20536;-62
2022/01/15 05:07:11;;;;;;;30.20;23.80;;;-2.40;99.90;;;;;;5132303;27;20463;-63
2022/01/15 05:09:39;;;;;;;32.50;23.77;;;-2.40;99.90;;;;;;5131963;27;20478;-62
2022/01/15 05:12:10;;;;;;;31.33;23.97;;;-2.40;99.90;;;;;;5131590;27;20500;-64
2022/01/15 05:14:38;;;;;;;28.30;22.70;;;-2.40;99.90;;;;;;5131789;27;20493;-63
2022/01/15 05:17:05;;;;;;;28.87;22.07;;;-2.40;99.90;;;;;;5131744;27;20480;-64
2022/01/15 05:19:32;;;;;;;30.10;23.57;;;-2.40;99.90;;;;;;5131140;27;20479;-64
2022/01/15 05:21:58;;;;;;;30.00;22.03;;;-2.40;99.90;;;;;;5132012;27;20453;-64
2022/01/15 05:24:28;;;;;;;38.37;24.17;;;-2.40;99.90;;;;;;5131601;27;20441;-63
2022/01/15 05:26:57;;;;;;;26.53;22.47;;;-2.40;99.90;;;;;;5131543;27;20433;-64
2022/01/15 05:29:23;;;;;;;29.93;23.87;;;-2.40;99.90;;;;;;5131305;27;20433;-63
2022/01/15 05:31:50;;;;;;;31.13;25.03;;;-2.50;99.90;;;;;;5131065;27;20487;-64
2022/01/15 05:34:17;;;;;;;31.00;22.70;;;-2.50;99.90;;;;;;5131378;27;20437;-62
2022/01/15 05:36:45;;;;;;;34.47;24.27;;;-2.50;99.90;;;;;;5131253;27;20472;-64
2022/01/15 05:39:12;;;;;;;38.07;27.10;;;-2.50;99.90;;;;;;5131075;27;20464;-64
2022/01/15 05:41:39;;;;;;;30.93;22.40;;;-2.40;99.90;;;;;;5131059;27;20966;-63
2022/01/15 05:44:07;;;;;;;30.27;22.57;;;-2.40;99.90;;;;;;5131290;27;20455;-64
2022/01/15 05:46:35;;;;;;;29.27;23.20;;;-2.50;99.90;;;;;;5130605;27;20449;-65
2022/01/15 05:49:02;;;;;;;33.53;24.13;;;-2.50;99.90;;;;;;5130843;27;20960;-62
2022/01/15 05:51:31;;;;;;;34.93;26.10;;;-2.50;99.90;;;;;;5130419;27;21259;-64
2022/01/15 05:53:58;;;;;;;30.43;24.13;;;-2.60;99.90;;;;;;5130976;27;20441;-64
2022/01/15 05:56:25;;;;;;;31.80;24.10;;;-2.50;99.90;;;;;;5131020;27;20477;-66
2022/01/15 05:58:52;;;;;;;28.67;23.07;;;-2.50;99.90;;;;;;5131098;27;20449;-64
2022/01/15 06:01:20;;;;;;;26.87;20.60;;;-2.50;99.90;;;;;;5130512;27;20555;-64
2022/01/15 06:03:47;;;;;;;35.70;23.47;;;-2.50;99.90;;;;;;5131188;27;20448;-65
2022/01/15 06:06:14;;;;;;;32.57;24.20;;;-2.50;99.90;;;;;;5131091;27;20433;-64
2022/01/15 06:08:41;;;;;;;33.37;23.90;;;-2.50;99.90;;;;;;5130651;27;20448;-66
2022/01/15 06:11:09;;;;;;;42.03;27.00;;;-2.40;99.90;;;;;;5129946;27;20544;-65
2022/01/15 06:13:36;;;;;;;37.73;26.10;;;-2.40;99.90;;;;;;5130777;27;20441;-63
2022/01/15 06:16:03;;;;;;;41.97;26.20;;;-2.40;99.90;;;;;;5130313;27;20903;-62
2022/01/15 06:18:31;;;;;;;42.87;28.40;;;-2.30;99.90;;;;;;5130137;27;20459;-64
2022/01/15 06:20:58;;;;;;;53.70;28.73;;;-2.20;99.90;;;;;;5129809;27;20482;-64
2022/01/15 06:23:25;;;;;;;56.00;30.13;;;-2.20;99.90;;;;;;5130061;27;20449;-65
2022/01/15 06:25:52;;;;;;;45.60;30.20;;;-2.20;99.90;;;;;;5129977;27;20449;-59
2022/01/15 06:28:19;;;;;;;54.03;29.87;;;-2.10;99.90;;;;;;5129745;27;20456;-63
2022/01/15 06:30:45;;;;;;;42.17;26.87;;;-2.00;99.90;;;;;;5129893;27;20487;-64
2022/01/15 06:33:12;;;;;;;93.67;30.00;;;-2.10;99.90;;;;;;5130073;27;20443;-64
2022/01/15 06:35:40;;;;;;;151.13;34.73;;;-2.00;99.90;;;;;;5130077;27;20510;-61
2022/01/15 06:38:08;;;;;;;130.33;32.50;;;-2.10;99.90;;;;;;5129800;27;20467;-64
2022/01/15 06:40:35;;;;;;;110.13;32.90;;;-2.20;99.90;;;;;;5129398;27;20551;-63
2022/01/15 06:43:02;;;;;;;79.93;28.60;;;-2.20;99.90;;;;;;5129613;27;20455;-65
2022/01/15 06:45:29;;;;;;;47.23;25.33;;;-2.20;99.90;;;;;;5129915;27;20449;-63
2022/01/15 06:47:57;;;;;;;60.53;27.37;;;-2.20;99.90;;;;;;5130059;28;20441;-64
2022/01/15 06:50:25;;;;;;;45.30;26.03;;;-2.10;99.90;;;;;;5129484;28;20551;-63
2022/01/15 06:52:54;;;;;;;79.13;28.60;;;-2.00;99.90;;;;;;5129784;28;20965;-62
2022/01/15 06:55:21;;;;;;;70.27;30.23;;;-2.10;99.90;;;;;;5129491;28;20870;-62
2022/01/15 06:57:48;;;;;;;83.07;29.40;;;-2.10;99.90;;;;;;5129833;28;20456;-62
2022/01/15 07:00:16;;;;;;;52.73;27.50;;;-2.10;99.90;;;;;;5129623;28;20467;-64
2022/01/15 07:02:43;;;;;;;54.20;27.30;;;-2.00;99.90;;;;;;5129921;28;20441;-62
2022/01/15 07:05:11;;;;;;;75.17;27.17;;;-2.10;99.90;;;;;;5129638;28;20444;-62
2022/01/15 07:07:43;;;;;;;81.27;30.50;;;-2.20;99.90;;;;;;5129502;28;20444;-63
2022/01/15 07:10:12;;;;;;;72.60;30.43;;;-2.20;99.90;;;;;;5129280;27;20465;-62
2022/01/15 07:12:39;;;;;;;75.40;28.80;;;-2.20;99.90;;;;;;5133835;27;20440;-62
2022/01/15 07:15:06;;;;;;;75.30;30.77;;;-2.10;99.90;;;;;;5133766;27;20441;-61
2022/01/15 07:17:33;;;;;;;115.17;32.70;;;-2.20;99.90;;;;;;5133500;27;20483;-64
2022/01/15 07:20:00;;;;;;;69.33;29.60;;;-2.20;99.90;;;;;;5133385;27;20454;-64
2022/01/15 07:22:26;;;;;;;39.23;25.53;;;-2.10;99.90;;;;;;5133303;27;20479;-64
2022/01/15 07:24:53;;;;;;;56.20;27.90;;;-2.10;99.90;;;;;;5133874;27;20464;-63
2022/01/15 07:27:21;;;;;;;62.13;29.77;;;-2.00;99.90;;;;;;5133790;27;20918;-63
2022/01/15 07:29:48;;;;;;;83.33;33.97;;;-1.90;99.90;;;;;;5133866;27;20988;-61
2022/01/15 07:32:15;;;;;;;108.27;31.43;;;-1.80;99.90;;;;;;5133892;27;20480;-63
2022/01/15 07:34:42;;;;;;;71.07;27.37;;;-1.70;99.90;;;;;;5133994;27;20440;-62
2022/01/15 07:37:09;;;;;;;42.20;25.23;;;-1.90;99.90;;;;;;5133385;27;21200;-64
2022/01/15 07:39:37;;;;;;;152.67;34.13;;;-1.90;99.90;;;;;;5133890;27;20524;-63
2022/01/15 07:42:05;;;;;;;64.50;28.07;;;-1.80;99.90;;;;;;5134122;27;20965;-61
2022/01/15 07:44:34;;;;;;;106.10;34.57;;;-1.70;99.90;;;;;;5134845;27;20524;-63
2022/01/15 07:47:01;;;;;;;82.80;33.07;;;-1.70;99.90;;;;;;5135628;27;20830;-63
2022/01/15 07:49:27;;;;;;;35.47;25.27;;;-1.70;99.90;;;;;;5134633;27;20461;-66
2022/01/15 07:51:54;;;;;;;63.57;30.50;;;-1.70;99.90;;;;;;5136395;27;20544;-63
2022/01/15 07:54:21;;;;;;;73.60;28.20;;;-1.60;99.90;;;;;;5136818;27;20500;-63
2022/01/15 07:56:48;;;;;;;114.83;35.03;;;-1.60;99.90;;;;;;5133271;27;20473;-65
2022/01/15 07:59:15;;;;;;;56.57;29.13;;;-1.50;99.90;;;;;;5133303;27;20445;-64
2022/01/15 08:01:43;;;;;;;52.53;28.27;;;-1.60;99.90;;;;;;5133571;27;20551;-64
2022/01/15 08:04:10;;;;;;;165.67;38.40;;;-1.60;99.90;;;;;;5132712;27;20441;-62
2022/01/15 08:06:39;;;;;;;186.03;38.87;;;-1.60;99.90;;;;;;5126125;27;20456;-62
2022/01/15 08:09:06;;;;;;;139.47;36.37;;;-1.70;99.90;;;;;;5128265;27;20449;-65
2022/01/15 08:11:32;;;;;;;129.70;33.53;;;-1.80;99.90;;;;;;5132900;27;20826;-65
2022/01/15 08:14:00;;;;;;;125.73;35.17;;;-1.80;99.90;;;;;;5132664;27;20449;-64
2022/01/15 08:16:26;;;;;;;127.27;33.00;;;-1.80;99.90;;;;;;5132655;27;20527;-64
2022/01/15 08:18:55;;;;;;;43.73;26.33;;;-1.90;99.90;;;;;;5132538;27;20448;-63
2022/01/15 08:21:21;;;;;;;53.53;30.23;;;-1.80;99.90;;;;;;5131666;27;20977;-63
2022/01/15 08:23:49;;;;;;;55.67;28.87;;;-1.80;99.90;;;;;;5131562;27;20827;-63
2022/01/15 08:26:16;;;;;;;40.97;28.70;;;-1.60;99.90;;;;;;5132485;27;21083;-61
2022/01/15 08:28:44;;;;;;;73.73;29.17;;;-1.60;99.90;;;;;;5132427;27;20948;-64
2022/01/15 08:31:11;;;;;;;55.20;27.13;;;-1.40;99.90;;;;;;5131495;27;20517;-63
2022/01/15 08:33:38;;;;;;;38.97;26.87;;;-1.40;99.90;;;;;;5132032;27;20444;-63
2022/01/15 08:36:07;;;;;;;34.90;26.73;;;-1.30;99.90;;;;;;5129506;27;20922;-63
2022/01/15 08:38:34;;;;;;;33.27;26.73;;;-1.30;99.90;;;;;;5128825;27;20452;-65
2022/01/15 08:41:00;;;;;;;33.17;26.03;;;-1.10;99.90;;;;;;5131086;27;20503;-63
2022/01/15 08:43:27;;;;;;;34.90;26.10;;;-0.90;99.90;;;;;;5133357;27;20484;-64
2022/01/15 08:45:54;;;;;;;33.33;25.73;;;-0.90;99.90;;;;;;5130066;27;20445;-62
2022/01/15 08:48:21;;;;;;;32.07;26.57;;;-0.90;99.90;;;;;;5131202;27;21048;-62
2022/01/15 08:50:48;;;;;;;34.13;28.37;;;-0.80;99.90;;;;;;5131437;27;20461;-62
2022/01/15 08:53:17;;;;;;;35.17;24.63;;;-0.70;99.90;;;;;;5131704;27;20453;-63
2022/01/15 08:55:44;;;;;;;39.43;26.40;;;-0.70;99.90;;;;;;5132071;27;20441;-63
2022/01/15 08:58:11;;;;;;;38.57;26.47;;;-0.70;99.90;;;;;;5130424;27;20491;-63
2022/01/15 09:00:38;;;;;;;33.60;26.17;;;-0.60;99.90;;;;;;5131176;27;20457;-63
2022/01/15 09:03:06;;;;;;;37.47;25.07;;;-0.50;99.90;;;;;;5129143;27;20469;-62
2022/01/15 09:05:34;;;;;;;55.80;29.07;;;-0.40;99.90;;;;;;5128679;27;20451;-63
2022/01/15 09:08:01;;;;;;;54.90;26.60;;;-0.40;99.90;;;;;;5130657;27;20445;-63
2022/01/15 09:10:29;;;;;;;112.87;31.73;;;-0.50;99.90;;;;;;5125295;27;20544;-63
2022/01/15 09:12:56;;;;;;;40.37;23.97;;;-0.60;99.90;;;;;;5130861;27;20449;-63
2022/01/15 09:15:23;;;;;;;55.27;26.30;;;-0.60;99.90;;;;;;5130840;27;20445;-63
2022/01/15 09:17:50;;;;;;;66.93;29.23;;;-0.70;99.90;;;;;;5127600;27;20498;-64
2022/01/15 09:20:17;;;;;;;65.93;26.77;;;-0.70;99.90;;;;;;5129808;27;20470;-63
2022/01/15 09:22:44;;;;;;;43.87;27.33;;;-0.50;99.90;;;;;;5131000;27;20446;-62
2022/01/15 09:25:11;;;;;;;57.93;26.90;;;-0.60;99.90;;;;;;5131025;27;20459;-63
2022/01/15 09:30:24;;;;;;;79.00;28.97;;;-0.70;99.90;;;;;;5128839;27;21039;-63
2022/01/15 09:32:53;;;;;;;62.30;27.17;;;-0.60;99.90;;;;;;5130725;27;20448;-63
2022/01/15 09:35:22;;;;;;;47.40;26.63;;;-0.60;99.90;;;;;;5125997;27;20456;-61
2022/01/15 09:37:50;;;;;;;63.43;33.40;;;-0.80;99.90;;;;;;5130314;27;20584;-62
2022/01/15 09:40:18;;;;;;;52.87;29.20;;;-0.80;99.90;;;;;;5130079;27;20461;-59
2022/01/15 09:42:49;;;;;;;50.50;29.40;;;-0.80;99.90;;;;;;5130583;27;20451;-58
2022/01/15 09:45:17;;;;;;;45.10;29.30;;;-0.80;99.90;;;;;;5130590;27;20441;-59
2022/01/15 09:47:45;;;;;;;32.90;26.80;;;-0.70;99.90;;;;;;5124863;27;20443;-60
2022/01/15 09:50:14;;;;;;;34.00;26.33;;;-0.50;99.90;;;;;;5119021;27;20542;-61
2022/01/15 09:52:41;;;;;;;29.70;23.33;;;-0.30;99.90;;;;;;5123358;27;21095;-62
2022/01/15 09:55:11;;;;;;;31.43;25.23;;;-0.10;99.90;;;;;;5129102;27;20455;-63
2022/01/15 09:57:39;;;;;;;30.63;24.97;;;0.10;99.90;;;;;;5119750;27;20488;-64
2022/01/15 10:00:14;;;;;;;31.70;24.80;;;0.20;99.90;;;;;;5117055;27;20433;-64
2022/01/15 10:02:42;;;;;;;30.00;22.53;;;0.40;99.90;;;;;;5110243;27;20491;-64
2022/01/15 10:05:10;;;;;;;28.63;23.70;;;0.30;99.90;;;;;;5116174;27;20450;-63
2022/01/15 10:07:37;;;;;;;32.60;24.40;;;0.50;99.90;;;;;;5114616;27;20475;-63
2022/01/15 10:10:15;;;;;;;28.40;23.10;;;0.70;99.90;;;;;;5117470;27;20572;-64
2022/01/15 10:12:44;;;;;;;30.30;24.43;;;1.00;99.90;;;;;;5116909;27;20451;-65
2022/01/15 10:15:15;;;;;;;34.60;24.30;;;0.90;99.90;;;;;;5117159;27;20548;-64
2022/01/15 10:17:44;;;;;;;28.90;24.47;;;1.10;99.90;;;;;;5116436;27;20607;-64
2022/01/15 10:20:13;;;;;;;32.60;23.00;;;1.30;99.90;;;;;;5107281;27;20462;-64
2022/01/15 10:22:42;;;;;;;31.00;24.70;;;1.40;99.90;;;;;;5119954;27;20448;-64
2022/01/15 10:25:13;;;;;;;34.47;23.53;;;1.60;99.90;;;;;;5114607;27;21216;-64
2022/01/15 10:27:42;;;;;;;32.10;23.00;;;1.80;99.90;;;;;;5119394;27;20446;-68
2022/01/15 10:30:10;;;;;;;24.80;22.13;;;2.00;99.90;;;;;;5112164;27;21508;-65
2022/01/15 10:32:41;;;;;;;27.53;23.37;;;2.00;99.90;;;;;;5121646;27;20445;-64
2022/01/15 10:35:12;;;;;;;32.70;22.40;;;2.10;99.90;;;;;;5125557;27;21140;-64
2022/01/15 10:37:49;;;;;;;26.73;21.97;;;2.10;99.90;;;;;;5125624;27;20504;-64
2022/01/15 10:40:16;;;;;;;28.47;22.97;;;2.20;99.90;;;;;;5125115;27;20460;-64
2022/01/15 10:42:50;;;;;;;31.33;23.70;;;2.20;99.90;;;;;;5125391;27;20437;-64
2022/01/15 10:45:17;;;;;;;28.60;22.80;;;2.10;99.90;;;;;;5117332;27;20453;-65
2022/01/15 10:47:49;;;;;;;36.67;23.73;;;2.30;99.90;;;;;;5118650;27;20983;-64
2022/01/15 10:50:21;;;;;;;39.13;25.17;;;2.30;99.90;;;;;;5110965;28;20493;-65
2022/01/15 10:52:48;;;;;;;26.63;22.47;;;2.10;99.90;;;;;;5110801;28;20430;-65
2022/01/15 10:55:16;;;;;;;27.37;24.37;;;1.80;99.90;;;;;;5114344;28;20529;-65
2022/01/15 10:57:45;;;;;;;46.10;26.40;;;1.90;99.90;;;;;;5112662;28;20486;-65
2022/01/15 11:00:15;;;;;;;33.37;25.17;;;2.00;99.90;;;;;;5114465;28;21018;-63
2022/01/15 11:02:46;;;;;;;72.93;26.27;;;2.00;99.90;;;;;;5117043;28;20449;-64
2022/01/15 11:05:22;;;;;;;38.63;23.97;;;1.90;99.90;;;;;;5117477;28;20454;-64
2022/01/15 11:07:49;;;;;;;30.00;24.27;;;2.00;99.90;;;;;;5115177;28;20445;-64
2022/01/15 11:10:16;;;;;;;28.40;22.20;;;2.10;99.90;;;;;;5118064;28;20465;-67
2022/01/15 11:12:43;;;;;;;29.73;24.43;;;2.20;99.90;;;;;;5117866;27;21141;-65
2022/01/15 11:15:10;;;;;;;35.40;24.60;;;2.40;99.90;;;;;;5116830;28;20441;-65
2022/01/15 11:17:38;;;;;;;34.80;22.60;;;2.30;99.90;;;;;;5111646;27;21007;-63
2022/01/15 11:20:07;;;;;;;29.07;23.47;;;2.30;99.90;;;;;;5105719;28;20453;-64
2022/01/15 11:22:35;;;;;;;29.00;23.43;;;2.60;99.90;;;;;;5116123;28;20457;-65
2022/01/15 11:25:03;;;;;;;26.03;22.70;;;2.90;99.90;;;;;;5115350;28;20447;-65
2022/01/15 11:27:30;;;;;;;29.93;22.93;;;3.10;99.90;;;;;;5104900;28;20434;-65
2022/01/15 11:29:58;;;;;;;28.20;22.13;;;3.10;99.90;;;;;;5123447;28;21163;-65
2022/01/15 11:32:26;;;;;;;30.27;21.87;;;3.10;99.90;;;;;;5116136;28;20441;-65
2022/01/15 11:35:06;;;;;;;28.77;25.20;;;2.90;99.90;;;;;;5117626;28;20474;-65
2022/01/15 11:37:42;;;;;;;26.80;23.07;;;2.90;99.90;;;;;;5106964;28;20899;-65
2022/01/15 11:40:46;;;;;;;29.13;24.50;;;3.00;99.90;;;;;;5105592;28;20434;-65
2022/01/15 11:43:42;;;;;;;32.10;24.83;;;3.20;99.90;;;;;;5044039;28;20881;-67
2022/01/15 11:46:29;;;;;;;28.97;23.17;;;3.40;99.90;;;;;;5051533;28;20455;-65
2022/01/15 11:49:42;;;;;;;38.70;25.80;;;3.50;99.90;;;;;;5100450;27;20444;-64
2022/01/15 11:52:43;;;;;;;29.30;25.70;;;3.60;99.90;;;;;;5115840;28;21109;-66
2022/01/15 11:55:28;;;;;;;38.17;28.00;;;3.60;99.90;;;;;;5123718;28;20445;-64
2022/01/15 11:57:58;;;;;;;36.13;30.00;;;3.20;99.90;;;;;;5126442;27;20579;-63
2022/01/15 12:00:28;;;;;;;38.63;30.03;;;3.00;99.90;;;;;;5106432;28;20505;-64
2022/01/15 12:03:16;;;;;;;42.60;34.63;;;3.00;99.90;;;;;;5112231;27;20445;-64
2022/01/15 12:05:46;;;;;;;45.43;36.20;;;3.00;99.90;;;;;;5120109;27;20448;-63
2022/01/15 12:08:30;;;;;;;40.37;33.43;;;3.20;99.90;;;;;;5127419;27;20468;-62
2022/01/15 12:10:58;;;;;;;50.40;38.27;;;3.40;99.90;;;;;;5119242;27;20509;-65
2022/01/15 12:13:26;;;;;;;43.37;36.73;;;3.50;99.90;;;;;;5129023;27;20453;-65
2022/01/15 12:16:26;;;;;;;41.97;36.97;;;3.60;99.90;;;;;;5127527;27;20499;-65
2022/01/15 12:18:54;;;;;;;41.27;33.60;;;3.60;99.90;;;;;;5128775;27;20484;-65
2022/01/15 12:21:42;;;;;;;37.07;29.80;;;3.50;99.90;;;;;;5128155;27;21000;-65
2022/01/15 12:24:38;;;;;;;32.23;27.20;;;3.60;99.90;;;;;;5128639;27;20441;-63
2022/01/15 12:27:07;;;;;;;30.90;24.70;;;3.70;99.90;;;;;;5113398;27;20517;-64
2022/01/15 12:29:35;;;;;;;33.30;25.07;;;3.70;99.90;;;;;;5107869;28;20495;-64
2022/01/15 12:32:02;;;;;;;27.87;23.30;;;3.50;99.90;;;;;;5108038;28;21005;-63
2022/01/15 12:34:29;;;;;;;25.93;22.13;;;3.50;99.90;;;;;;5108106;28;21345;-64
2022/01/15 12:36:56;;;;;;;27.07;22.23;;;3.50;99.90;;;;;;5111392;27;20441;-63
2022/01/15 12:39:33;;;;;;;29.70;24.07;;;3.40;99.90;;;;;;5127107;27;20493;-65
2022/01/15 12:42:01;;;;;;;28.43;25.07;;;3.30;99.90;;;;;;5128151;27;20485;-65
2022/01/15 12:44:28;;;;;;;32.63;26.93;;;3.20;99.90;;;;;;5123180;27;20457;-65
2022/01/15 12:46:56;;;;;;;31.93;25.03;;;3.00;99.90;;;;;;5118757;27;20644;-65
2022/01/15 12:49:23;;;;;;;27.10;23.20;;;3.00;99.90;;;;;;5121385;27;20428;-65
2022/01/15 12:51:49;;;;;;;32.17;26.20;;;2.90;99.90;;;;;;5115161;27;20544;-64